sensor_id;sensor_type;location;lat;lon;timestamp;P1;durP1;ratioP1;P2;durP2;ratioP2
20014;SDS011;61787;42.022;23.078;2022-09-29T00:00:16;5.63;;;1.60;;
20014;SDS011;61787;42.022;23.078;2022-09-29T00:01:19;3.20;;;1.50;;
20014;SDS011;61787;42.022;23.078;2022-09-29T00:02:20;2.93;;;1.60;;
20014;SDS011;61787;42.022;23.078;2022-09-29T00:03:22;3.63;;;1.60;;
20014;SDS011;61787;42.022;23.078;2022-09-29T00:04:24;7.73;;;1.90;;
20014;SDS011;61787;42.022;23.078;2022-09-29T00:05:25;5.50;;;2.03;;
20014;SDS011;61787;42.022;23.078;2022-09-29T00:06:28;3.63;;;1.77;;
20014;SDS011;61787;42.022;23.078;2022-09-29T00:07:29;3.13;;;2.00;;
20014;SDS011;61787;42.022;23.078;2022-09-29T00:08:32;2.10;;;1.90;;
20014;SDS011;61787;42.022;23.078;2022-09-29T00:09:34;7.60;;;2.00;;
20014;SDS011;61787;42.022;23.078;2022-09-29T00:10:38;4.87;;;2.40;;
20014;SDS011;61787;42.022;23.078;2022-09-29T00:11:40;3.33;;;1.60;;
20014;SDS011;61787;42.022;23.078;2022-09-29T00:12:42;3.37;;;1.83;;
20014;SDS011;61787;42.022;23.078;2022-09-29T00:13:44;6.70;;;1.93;;
20014;SDS011;61787;42.022;23.078;2022-09-29T00:14:47;3.13;;;1.87;;
20014;SDS011;61787;42.022;23.078;2022-09-29T00:15:55;4.03;;;2.00;;
20014;SDS011;61787;42.022;23.078;2022-09-29T00:16:58;3.63;;;2.13;;
20014;SDS011;61787;42.022;23.078;2022-09-29T00:17:59;3.70;;;2.10;;
20014;SDS011;61787;42.022;23.078;2022-09-29T00:19:16;3.03;;;2.22;;
20014;SDS011;61787;42.022;23.078;2022-09-29T00:20:19;3.53;;;1.87;;
20014;SDS011;61787;42.022;23.078;2022-09-29T00:21:21;3.23;;;1.97;;
20014;SDS011;61787;42.022;23.078;2022-09-29T00:22:23;6.00;;;2.00;;
20014;SDS011;61787;42.022;23.078;2022-09-29T00:23:25;7.30;;;2.03;;
20014;SDS011;61787;42.022;23.078;2022-09-29T00:24:27;3.83;;;2.00;;
20014;SDS011;61787;42.022;23.078;2022-09-29T00:25:29;5.38;;;2.38;;
20014;SDS011;61787;42.022;23.078;2022-09-29T00:26:32;4.25;;;2.08;;
20014;SDS011;61787;42.022;23.078;2022-09-29T00:27:33;6.82;;;1.95;;
20014;SDS011;61787;42.022;23.078;2022-09-29T00:28:36;6.50;;;2.00;;
20014;SDS011;61787;42.022;23.078;2022-09-29T00:29:39;5.80;;;2.00;;
20014;SDS011;61787;42.022;23.078;2022-09-29T00:30:41;4.80;;;2.07;;
20014;SDS011;61787;42.022;23.078;2022-09-29T00:31:42;3.55;;;1.88;;
20014;SDS011;61787;42.022;23.078;2022-09-29T00:32:44;2.92;;;1.88;;
20014;SDS011;61787;42.022;23.078;2022-09-29T00:33:46;5.47;;;2.13;;
20014;SDS011;61787;42.022;23.078;2022-09-29T00:34:48;5.90;;;1.93;;
20014;SDS011;61787;42.022;23.078;2022-09-29T00:36:01;5.35;;;1.90;;
20014;SDS011;61787;42.022;23.078;2022-09-29T00:37:04;5.00;;;1.70;;
20014;SDS011;61787;42.022;23.078;2022-09-29T00:38:06;7.10;;;1.95;;
20014;SDS011;61787;42.022;23.078;2022-09-29T00:39:07;6.43;;;2.28;;
20014;SDS011;61787;42.022;23.078;2022-09-29T00:40:09;5.73;;;2.30;;
20014;SDS011;61787;42.022;23.078;2022-09-29T00:41:15;4.20;;;2.20;;
20014;SDS011;61787;42.022;23.078;2022-09-29T00:42:19;7.13;;;1.67;;
20014;SDS011;61787;42.022;23.078;2022-09-29T00:43:44;3.80;;;1.50;;
20014;SDS011;61787;42.022;23.078;2022-09-29T00:47:04;4.70;;;1.77;;
20014;SDS011;61787;42.022;23.078;2022-09-29T00:48:16;3.93;;;1.60;;
20014;SDS011;61787;42.022;23.078;2022-09-29T00:50:47;10.33;;;3.70;;
20014;SDS011;61787;42.022;23.078;2022-09-29T00:51:56;7.87;;;3.40;;
20014;SDS011;61787;42.022;23.078;2022-09-29T00:53:02;6.93;;;2.97;;
20014;SDS011;61787;42.022;23.078;2022-09-29T00:54:04;6.20;;;2.17;;
20014;SDS011;61787;42.022;23.078;2022-09-29T00:55:20;7.53;;;2.73;;
20014;SDS011;61787;42.022;23.078;2022-09-29T00:56:26;7.30;;;2.70;;
20014;SDS011;61787;42.022;23.078;2022-09-29T00:57:34;4.30;;;2.67;;
20014;SDS011;61787;42.022;23.078;2022-09-29T00:58:41;4.37;;;2.47;;
20014;SDS011;61787;42.022;23.078;2022-09-29T01:01:04;5.60;;;1.70;;
20014;SDS011;61787;42.022;23.078;2022-09-29T01:02:06;5.70;;;1.50;;
20014;SDS011;61787;42.022;23.078;2022-09-29T01:03:11;5.37;;;1.53;;
20014;SDS011;61787;42.022;23.078;2022-09-29T01:04:16;2.60;;;1.37;;
20014;SDS011;61787;42.022;23.078;2022-09-29T01:05:20;9.03;;;1.70;;
20014;SDS011;61787;42.022;23.078;2022-09-29T01:07:08;3.77;;;1.70;;
20014;SDS011;61787;42.022;23.078;2022-09-29T01:07:53;2.77;;;1.50;;
20014;SDS011;61787;42.022;23.078;2022-09-29T01:09:12;2.13;;;1.53;;
20014;SDS011;61787;42.022;23.078;2022-09-29T01:10:17;2.97;;;1.90;;
20014;SDS011;61787;42.022;23.078;2022-09-29T01:11:20;2.80;;;1.43;;
20014;SDS011;61787;42.022;23.078;2022-09-29T01:12:22;7.13;;;1.90;;
20014;SDS011;61787;42.022;23.078;2022-09-29T01:13:24;5.57;;;1.77;;
20014;SDS011;61787;42.022;23.078;2022-09-29T01:14:26;3.13;;;1.70;;
20014;SDS011;61787;42.022;23.078;2022-09-29T01:15:29;2.77;;;1.47;;
20014;SDS011;61787;42.022;23.078;2022-09-29T01:16:32;2.60;;;1.57;;
20014;SDS011;61787;42.022;23.078;2022-09-29T01:17:35;5.10;;;1.60;;
20014;SDS011;61787;42.022;23.078;2022-09-29T01:18:37;5.70;;;1.83;;
20014;SDS011;61787;42.022;23.078;2022-09-29T01:19:46;4.73;;;1.63;;
20014;SDS011;61787;42.022;23.078;2022-09-29T01:21:12;3.83;;;2.07;;
20014;SDS011;61787;42.022;23.078;2022-09-29T01:25:39;2.40;;;1.30;;
20014;SDS011;61787;42.022;23.078;2022-09-29T01:31:08;5.90;;;1.53;;
20014;SDS011;61787;42.022;23.078;2022-09-29T01:32:39;1.40;;;1.30;;
20014;SDS011;61787;42.022;23.078;2022-09-29T01:35:08;5.57;;;1.40;;
20014;SDS011;61787;42.022;23.078;2022-09-29T01:39:18;4.60;;;1.50;;
20014;SDS011;61787;42.022;23.078;2022-09-29T01:40:35;2.30;;;1.30;;
20014;SDS011;61787;42.022;23.078;2022-09-29T01:42:58;2.17;;;1.40;;
20014;SDS011;61787;42.022;23.078;2022-09-29T01:45:36;2.53;;;1.67;;
20014;SDS011;61787;42.022;23.078;2022-09-29T01:47:47;4.47;;;1.90;;
20014;SDS011;61787;42.022;23.078;2022-09-29T01:48:54;5.43;;;2.50;;
20014;SDS011;61787;42.022;23.078;2022-09-29T01:50:02;5.53;;;2.23;;
20014;SDS011;61787;42.022;23.078;2022-09-29T01:51:08;4.70;;;1.67;;
20014;SDS011;61787;42.022;23.078;2022-09-29T01:52:17;4.90;;;2.13;;
20014;SDS011;61787;42.022;23.078;2022-09-29T01:53:23;1.83;;;1.50;;
20014;SDS011;61787;42.022;23.078;2022-09-29T01:56:10;1.50;;;1.03;;
20014;SDS011;61787;42.022;23.078;2022-09-29T01:58:43;3.00;;;1.50;;
20014;SDS011;61787;42.022;23.078;2022-09-29T02:01:10;4.07;;;1.70;;
20014;SDS011;61787;42.022;23.078;2022-09-29T02:02:19;3.83;;;1.77;;
20014;SDS011;61787;42.022;23.078;2022-09-29T02:03:29;3.70;;;1.43;;
20014;SDS011;61787;42.022;23.078;2022-09-29T02:04:41;2.70;;;1.37;;
20014;SDS011;61787;42.022;23.078;2022-09-29T02:05:48;3.60;;;1.70;;
20014;SDS011;61787;42.022;23.078;2022-09-29T02:06:55;2.43;;;1.50;;
20014;SDS011;61787;42.022;23.078;2022-09-29T02:08:13;3.53;;;1.50;;
20014;SDS011;61787;42.022;23.078;2022-09-29T02:09:24;3.40;;;1.30;;
20014;SDS011;61787;42.022;23.078;2022-09-29T02:10:50;1.83;;;1.33;;
20014;SDS011;61787;42.022;23.078;2022-09-29T02:12:02;5.57;;;1.60;;
20014;SDS011;61787;42.022;23.078;2022-09-29T02:13:05;3.23;;;1.30;;
20014;SDS011;61787;42.022;23.078;2022-09-29T02:14:13;1.73;;;1.00;;
20014;SDS011;61787;42.022;23.078;2022-09-29T02:15:20;2.67;;;1.43;;
20014;SDS011;61787;42.022;23.078;2022-09-29T02:16:30;2.47;;;1.43;;
20014;SDS011;61787;42.022;23.078;2022-09-29T02:17:38;1.67;;;1.20;;
20014;SDS011;61787;42.022;23.078;2022-09-29T02:18:53;3.63;;;1.40;;
20014;SDS011;61787;42.022;23.078;2022-09-29T02:19:58;4.13;;;1.30;;
20014;SDS011;61787;42.022;23.078;2022-09-29T02:21:00;2.57;;;1.47;;
20014;SDS011;61787;42.022;23.078;2022-09-29T02:22:02;3.77;;;1.50;;
20014;SDS011;61787;42.022;23.078;2022-09-29T02:23:03;3.97;;;1.30;;
20014;SDS011;61787;42.022;23.078;2022-09-29T02:24:05;3.43;;;1.30;;
20014;SDS011;61787;42.022;23.078;2022-09-29T02:25:07;3.47;;;1.40;;
20014;SDS011;61787;42.022;23.078;2022-09-29T02:26:12;5.00;;;1.57;;
20014;SDS011;61787;42.022;23.078;2022-09-29T02:27:14;3.23;;;1.57;;
20014;SDS011;61787;42.022;23.078;2022-09-29T02:28:16;4.83;;;1.47;;
20014;SDS011;61787;42.022;23.078;2022-09-29T02:29:19;7.27;;;1.60;;
20014;SDS011;61787;42.022;23.078;2022-09-29T02:30:21;3.43;;;1.47;;
20014;SDS011;61787;42.022;23.078;2022-09-29T02:31:22;2.97;;;1.40;;
20014;SDS011;61787;42.022;23.078;2022-09-29T02:32:25;3.50;;;1.60;;
20014;SDS011;61787;42.022;23.078;2022-09-29T02:33:27;2.43;;;1.50;;
20014;SDS011;61787;42.022;23.078;2022-09-29T02:34:30;4.93;;;2.40;;
20014;SDS011;61787;42.022;23.078;2022-09-29T02:35:42;2.00;;;1.40;;
20014;SDS011;61787;42.022;23.078;2022-09-29T02:36:59;4.33;;;1.63;;
20014;SDS011;61787;42.022;23.078;2022-09-29T02:38:11;3.20;;;1.50;;
20014;SDS011;61787;42.022;23.078;2022-09-29T02:41:06;3.00;;;1.10;;
20014;SDS011;61787;42.022;23.078;2022-09-29T02:49:12;2.23;;;1.40;;
20014;SDS011;61787;42.022;23.078;2022-09-29T02:50:40;2.50;;;1.50;;
20014;SDS011;61787;42.022;23.078;2022-09-29T02:51:54;2.13;;;1.30;;
20014;SDS011;61787;42.022;23.078;2022-09-29T02:55:36;2.00;;;1.37;;
20014;SDS011;61787;42.022;23.078;2022-09-29T02:57:14;4.00;;;1.70;;
20014;SDS011;61787;42.022;23.078;2022-09-29T03:01:09;2.77;;;1.60;;
20014;SDS011;61787;42.022;23.078;2022-09-29T03:02:11;3.30;;;1.33;;
20014;SDS011;61787;42.022;23.078;2022-09-29T03:03:16;3.57;;;1.30;;
20014;SDS011;61787;42.022;23.078;2022-09-29T03:04:19;3.57;;;1.30;;
20014;SDS011;61787;42.022;23.078;2022-09-29T03:05:22;2.60;;;1.40;;
20014;SDS011;61787;42.022;23.078;2022-09-29T03:06:24;1.67;;;1.30;;
20014;SDS011;61787;42.022;23.078;2022-09-29T03:07:25;2.60;;;1.30;;
20014;SDS011;61787;42.022;23.078;2022-09-29T03:08:27;8.00;;;1.53;;
20014;SDS011;61787;42.022;23.078;2022-09-29T03:09:28;2.77;;;1.33;;
20014;SDS011;61787;42.022;23.078;2022-09-29T03:10:30;3.40;;;1.50;;
20014;SDS011;61787;42.022;23.078;2022-09-29T03:11:32;6.07;;;1.67;;
20014;SDS011;61787;42.022;23.078;2022-09-29T03:12:33;2.97;;;1.40;;
20014;SDS011;61787;42.022;23.078;2022-09-29T03:13:35;2.93;;;1.50;;
20014;SDS011;61787;42.022;23.078;2022-09-29T03:14:37;3.53;;;1.40;;
20014;SDS011;61787;42.022;23.078;2022-09-29T03:15:38;3.07;;;1.73;;
20014;SDS011;61787;42.022;23.078;2022-09-29T03:16:40;3.50;;;1.97;;
20014;SDS011;61787;42.022;23.078;2022-09-29T03:17:43;4.23;;;2.03;;
20014;SDS011;61787;42.022;23.078;2022-09-29T03:18:45;5.63;;;2.30;;
20014;SDS011;61787;42.022;23.078;2022-09-29T03:19:47;4.20;;;2.07;;
20014;SDS011;61787;42.022;23.078;2022-09-29T03:20:48;8.80;;;2.13;;
20014;SDS011;61787;42.022;23.078;2022-09-29T03:21:50;6.90;;;2.30;;
20014;SDS011;61787;42.022;23.078;2022-09-29T03:22:54;5.37;;;2.70;;
20014;SDS011;61787;42.022;23.078;2022-09-29T03:23:56;4.47;;;2.40;;
20014;SDS011;61787;42.022;23.078;2022-09-29T03:24:58;3.63;;;2.47;;
20014;SDS011;61787;42.022;23.078;2022-09-29T03:25:59;2.57;;;2.10;;
20014;SDS011;61787;42.022;23.078;2022-09-29T03:27:01;2.80;;;2.37;;
20014;SDS011;61787;42.022;23.078;2022-09-29T03:28:02;5.27;;;2.27;;
20014;SDS011;61787;42.022;23.078;2022-09-29T03:29:04;6.70;;;2.10;;
20014;SDS011;61787;42.022;23.078;2022-09-29T03:30:06;7.07;;;2.80;;
20014;SDS011;61787;42.022;23.078;2022-09-29T03:31:09;3.63;;;2.07;;
20014;SDS011;61787;42.022;23.078;2022-09-29T03:32:11;3.87;;;2.20;;
20014;SDS011;61787;42.022;23.078;2022-09-29T03:33:12;4.50;;;2.37;;
20014;SDS011;61787;42.022;23.078;2022-09-29T03:34:14;6.13;;;2.57;;
20014;SDS011;61787;42.022;23.078;2022-09-29T03:35:16;4.03;;;2.33;;
20014;SDS011;61787;42.022;23.078;2022-09-29T03:36:17;4.50;;;2.20;;
20014;SDS011;61787;42.022;23.078;2022-09-29T03:37:19;2.87;;;1.90;;
20014;SDS011;61787;42.022;23.078;2022-09-29T03:38:20;3.40;;;2.20;;
20014;SDS011;61787;42.022;23.078;2022-09-29T03:39:22;3.00;;;2.13;;
20014;SDS011;61787;42.022;23.078;2022-09-29T03:40:25;2.10;;;1.90;;
20014;SDS011;61787;42.022;23.078;2022-09-29T03:41:27;4.53;;;1.90;;
20014;SDS011;61787;42.022;23.078;2022-09-29T03:42:29;3.23;;;2.00;;
20014;SDS011;61787;42.022;23.078;2022-09-29T03:43:30;3.57;;;1.93;;
20014;SDS011;61787;42.022;23.078;2022-09-29T03:44:35;2.50;;;2.17;;
20014;SDS011;61787;42.022;23.078;2022-09-29T03:45:36;2.90;;;1.90;;
20014;SDS011;61787;42.022;23.078;2022-09-29T03:46:38;4.67;;;2.33;;
20014;SDS011;61787;42.022;23.078;2022-09-29T03:47:39;4.23;;;2.50;;
20014;SDS011;61787;42.022;23.078;2022-09-29T03:48:41;4.23;;;2.17;;
20014;SDS011;61787;42.022;23.078;2022-09-29T03:49:43;8.13;;;2.13;;
20014;SDS011;61787;42.022;23.078;2022-09-29T03:50:45;5.93;;;2.37;;
20014;SDS011;61787;42.022;23.078;2022-09-29T03:51:47;4.80;;;2.10;;
20014;SDS011;61787;42.022;23.078;2022-09-29T03:52:48;3.17;;;2.13;;
20014;SDS011;61787;42.022;23.078;2022-09-29T03:53:50;2.97;;;2.20;;
20014;SDS011;61787;42.022;23.078;2022-09-29T03:54:51;3.47;;;1.93;;
20014;SDS011;61787;42.022;23.078;2022-09-29T03:55:53;3.00;;;2.10;;
20014;SDS011;61787;42.022;23.078;2022-09-29T03:56:55;6.33;;;2.30;;
20014;SDS011;61787;42.022;23.078;2022-09-29T03:57:56;4.60;;;2.23;;
20014;SDS011;61787;42.022;23.078;2022-09-29T03:58:58;6.33;;;2.30;;
20014;SDS011;61787;42.022;23.078;2022-09-29T04:00:00;2.57;;;2.37;;
20014;SDS011;61787;42.022;23.078;2022-09-29T04:01:01;5.60;;;2.43;;
20014;SDS011;61787;42.022;23.078;2022-09-29T04:02:03;5.27;;;2.53;;
20014;SDS011;61787;42.022;23.078;2022-09-29T04:03:05;10.30;;;2.90;;
20014;SDS011;61787;42.022;23.078;2022-09-29T04:04:07;6.33;;;3.10;;
20014;SDS011;61787;42.022;23.078;2022-09-29T04:05:09;7.77;;;3.97;;
20014;SDS011;61787;42.022;23.078;2022-09-29T04:06:11;6.17;;;3.47;;
20014;SDS011;61787;42.022;23.078;2022-09-29T04:07:13;9.30;;;3.50;;
20014;SDS011;61787;42.022;23.078;2022-09-29T04:08:14;5.37;;;2.60;;
20014;SDS011;61787;42.022;23.078;2022-09-29T04:09:16;5.27;;;2.73;;
20014;SDS011;61787;42.022;23.078;2022-09-29T04:10:18;5.80;;;2.43;;
20014;SDS011;61787;42.022;23.078;2022-09-29T04:11:19;5.33;;;2.40;;
20014;SDS011;61787;42.022;23.078;2022-09-29T04:12:21;6.70;;;2.40;;
20014;SDS011;61787;42.022;23.078;2022-09-29T04:13:22;4.70;;;2.77;;
20014;SDS011;61787;42.022;23.078;2022-09-29T04:14:24;4.73;;;2.77;;
20014;SDS011;61787;42.022;23.078;2022-09-29T04:15:25;4.10;;;2.83;;
20014;SDS011;61787;42.022;23.078;2022-09-29T04:16:27;4.97;;;2.40;;
20014;SDS011;61787;42.022;23.078;2022-09-29T04:17:29;9.17;;;2.80;;
20014;SDS011;61787;42.022;23.078;2022-09-29T04:18:30;4.80;;;2.40;;
20014;SDS011;61787;42.022;23.078;2022-09-29T04:19:33;4.87;;;2.27;;
20014;SDS011;61787;42.022;23.078;2022-09-29T04:20:34;7.87;;;2.87;;
20014;SDS011;61787;42.022;23.078;2022-09-29T04:21:37;7.17;;;2.37;;
20014;SDS011;61787;42.022;23.078;2022-09-29T04:22:39;6.33;;;2.90;;
20014;SDS011;61787;42.022;23.078;2022-09-29T04:23:40;4.60;;;2.80;;
20014;SDS011;61787;42.022;23.078;2022-09-29T04:24:42;5.90;;;2.40;;
20014;SDS011;61787;42.022;23.078;2022-09-29T04:25:44;8.60;;;3.00;;
20014;SDS011;61787;42.022;23.078;2022-09-29T04:26:46;6.37;;;2.40;;
20014;SDS011;61787;42.022;23.078;2022-09-29T04:27:47;5.07;;;2.60;;
20014;SDS011;61787;42.022;23.078;2022-09-29T04:28:49;3.90;;;2.30;;
20014;SDS011;61787;42.022;23.078;2022-09-29T04:29:50;5.90;;;2.40;;
20014;SDS011;61787;42.022;23.078;2022-09-29T04:30:52;4.47;;;2.50;;
20014;SDS011;61787;42.022;23.078;2022-09-29T04:31:54;4.53;;;2.20;;
20014;SDS011;61787;42.022;23.078;2022-09-29T04:32:56;4.40;;;2.63;;
20014;SDS011;61787;42.022;23.078;2022-09-29T04:33:58;4.67;;;2.60;;
20014;SDS011;61787;42.022;23.078;2022-09-29T04:34:59;5.07;;;2.80;;
20014;SDS011;61787;42.022;23.078;2022-09-29T04:36:01;4.70;;;2.50;;
20014;SDS011;61787;42.022;23.078;2022-09-29T04:37:06;5.80;;;2.70;;
20014;SDS011;61787;42.022;23.078;2022-09-29T04:38:11;6.00;;;3.00;;
20014;SDS011;61787;42.022;23.078;2022-09-29T04:39:12;6.83;;;2.80;;
20014;SDS011;61787;42.022;23.078;2022-09-29T04:40:14;5.93;;;2.60;;
20014;SDS011;61787;42.022;23.078;2022-09-29T04:41:17;6.80;;;2.63;;
20014;SDS011;61787;42.022;23.078;2022-09-29T04:42:19;7.30;;;2.80;;
20014;SDS011;61787;42.022;23.078;2022-09-29T04:43:21;15.23;;;3.33;;
20014;SDS011;61787;42.022;23.078;2022-09-29T04:44:23;7.60;;;2.93;;
20014;SDS011;61787;42.022;23.078;2022-09-29T04:45:26;5.10;;;2.67;;
20014;SDS011;61787;42.022;23.078;2022-09-29T04:46:28;3.77;;;2.33;;
20014;SDS011;61787;42.022;23.078;2022-09-29T04:47:30;4.93;;;2.43;;
20014;SDS011;61787;42.022;23.078;2022-09-29T04:48:31;6.77;;;2.60;;
20014;SDS011;61787;42.022;23.078;2022-09-29T04:49:36;6.40;;;3.13;;
20014;SDS011;61787;42.022;23.078;2022-09-29T04:50:38;9.83;;;3.03;;
20014;SDS011;61787;42.022;23.078;2022-09-29T04:51:39;12.73;;;3.27;;
20014;SDS011;61787;42.022;23.078;2022-09-29T04:52:42;6.63;;;2.50;;
20014;SDS011;61787;42.022;23.078;2022-09-29T04:53:43;6.80;;;2.70;;
20014;SDS011;61787;42.022;23.078;2022-09-29T04:54:45;3.93;;;1.93;;
20014;SDS011;61787;42.022;23.078;2022-09-29T04:55:47;3.00;;;1.90;;
20014;SDS011;61787;42.022;23.078;2022-09-29T04:56:48;3.17;;;2.33;;
20014;SDS011;61787;42.022;23.078;2022-09-29T04:57:50;10.57;;;2.93;;
20014;SDS011;61787;42.022;23.078;2022-09-29T04:58:52;10.13;;;3.10;;
20014;SDS011;61787;42.022;23.078;2022-09-29T04:59:55;8.03;;;3.27;;
20014;SDS011;61787;42.022;23.078;2022-09-29T05:01:03;4.77;;;2.27;;
20014;SDS011;61787;42.022;23.078;2022-09-29T05:02:09;4.30;;;2.00;;
20014;SDS011;61787;42.022;23.078;2022-09-29T05:03:10;5.43;;;2.40;;
20014;SDS011;61787;42.022;23.078;2022-09-29T05:04:12;8.50;;;2.23;;
20014;SDS011;61787;42.022;23.078;2022-09-29T05:05:14;6.30;;;2.70;;
20014;SDS011;61787;42.022;23.078;2022-09-29T05:06:15;3.30;;;2.50;;
20014;SDS011;61787;42.022;23.078;2022-09-29T05:07:17;7.30;;;2.90;;
20014;SDS011;61787;42.022;23.078;2022-09-29T05:08:19;7.07;;;3.47;;
20014;SDS011;61787;42.022;23.078;2022-09-29T05:09:20;6.10;;;3.10;;
20014;SDS011;61787;42.022;23.078;2022-09-29T05:10:25;7.03;;;3.30;;
20014;SDS011;61787;42.022;23.078;2022-09-29T05:11:26;5.77;;;3.40;;
20014;SDS011;61787;42.022;23.078;2022-09-29T05:12:28;5.70;;;3.53;;
20014;SDS011;61787;42.022;23.078;2022-09-29T05:13:30;3.73;;;2.80;;
20014;SDS011;61787;42.022;23.078;2022-09-29T05:14:31;6.07;;;3.07;;
20014;SDS011;61787;42.022;23.078;2022-09-29T05:15:33;5.10;;;3.00;;
20014;SDS011;61787;42.022;23.078;2022-09-29T05:16:35;7.37;;;3.10;;
20014;SDS011;61787;42.022;23.078;2022-09-29T05:17:36;4.93;;;2.60;;
20014;SDS011;61787;42.022;23.078;2022-09-29T05:18:38;4.53;;;2.63;;
20014;SDS011;61787;42.022;23.078;2022-09-29T05:19:40;6.57;;;2.20;;
20014;SDS011;61787;42.022;23.078;2022-09-29T05:20:41;17.77;;;3.90;;
20014;SDS011;61787;42.022;23.078;2022-09-29T05:22:03;7.47;;;2.43;;
20014;SDS011;61787;42.022;23.078;2022-09-29T05:23:04;4.40;;;3.07;;
20014;SDS011;61787;42.022;23.078;2022-09-29T05:24:10;6.17;;;2.97;;
20014;SDS011;61787;42.022;23.078;2022-09-29T05:25:11;4.60;;;2.80;;
20014;SDS011;61787;42.022;23.078;2022-09-29T05:26:13;8.07;;;2.90;;
20014;SDS011;61787;42.022;23.078;2022-09-29T05:27:15;4.50;;;3.30;;
20014;SDS011;61787;42.022;23.078;2022-09-29T05:28:16;7.80;;;3.17;;
20014;SDS011;61787;42.022;23.078;2022-09-29T05:29:18;6.30;;;3.20;;
20014;SDS011;61787;42.022;23.078;2022-09-29T05:30:19;6.47;;;3.20;;
20014;SDS011;61787;42.022;23.078;2022-09-29T05:31:21;7.10;;;3.17;;
20014;SDS011;61787;42.022;23.078;2022-09-29T05:32:23;7.50;;;3.47;;
20014;SDS011;61787;42.022;23.078;2022-09-29T05:33:24;9.40;;;3.17;;
20014;SDS011;61787;42.022;23.078;2022-09-29T05:34:26;11.20;;;3.73;;
20014;SDS011;61787;42.022;23.078;2022-09-29T05:35:27;9.60;;;3.70;;
20014;SDS011;61787;42.022;23.078;2022-09-29T05:36:29;11.10;;;3.30;;
20014;SDS011;61787;42.022;23.078;2022-09-29T05:37:31;9.47;;;4.03;;
20014;SDS011;61787;42.022;23.078;2022-09-29T05:38:33;5.17;;;4.20;;
20014;SDS011;61787;42.022;23.078;2022-09-29T05:39:38;10.83;;;4.13;;
20014;SDS011;61787;42.022;23.078;2022-09-29T05:40:39;7.32;;;4.15;;
20014;SDS011;61787;42.022;23.078;2022-09-29T05:41:41;6.60;;;3.10;;
20014;SDS011;61787;42.022;23.078;2022-09-29T05:42:43;8.00;;;2.60;;
20014;SDS011;61787;42.022;23.078;2022-09-29T05:43:44;4.95;;;2.55;;
20014;SDS011;61787;42.022;23.078;2022-09-29T05:44:46;6.53;;;3.13;;
20014;SDS011;61787;42.022;23.078;2022-09-29T05:45:47;6.18;;;2.78;;
20014;SDS011;61787;42.022;23.078;2022-09-29T05:46:49;4.10;;;2.22;;
20014;SDS011;61787;42.022;23.078;2022-09-29T05:47:50;7.47;;;3.20;;
20014;SDS011;61787;42.022;23.078;2022-09-29T05:48:53;3.92;;;2.13;;
20014;SDS011;61787;42.022;23.078;2022-09-29T05:49:54;2.83;;;2.00;;
20014;SDS011;61787;42.022;23.078;2022-09-29T05:50:56;4.82;;;2.50;;
20014;SDS011;61787;42.022;23.078;2022-09-29T05:51:58;3.22;;;2.38;;
20014;SDS011;61787;42.022;23.078;2022-09-29T05:53:03;6.18;;;2.75;;
20014;SDS011;61787;42.022;23.078;2022-09-29T05:54:05;3.08;;;2.05;;
20014;SDS011;61787;42.022;23.078;2022-09-29T05:55:06;2.78;;;1.70;;
20014;SDS011;61787;42.022;23.078;2022-09-29T05:56:12;4.38;;;2.20;;
20014;SDS011;61787;42.022;23.078;2022-09-29T05:57:21;3.00;;;2.00;;
20014;SDS011;61787;42.022;23.078;2022-09-29T05:58:23;5.93;;;2.53;;
20014;SDS011;61787;42.022;23.078;2022-09-29T05:59:25;5.97;;;2.60;;
20014;SDS011;61787;42.022;23.078;2022-09-29T06:00:26;6.88;;;2.83;;
20014;SDS011;61787;42.022;23.078;2022-09-29T06:01:30;8.90;;;2.65;;
20014;SDS011;61787;42.022;23.078;2022-09-29T06:02:32;6.75;;;2.83;;
20014;SDS011;61787;42.022;23.078;2022-09-29T06:03:35;9.50;;;3.15;;
20014;SDS011;61787;42.022;23.078;2022-09-29T06:04:37;6.65;;;2.28;;
20014;SDS011;61787;42.022;23.078;2022-09-29T06:05:41;3.05;;;1.90;;
20014;SDS011;61787;42.022;23.078;2022-09-29T06:06:43;4.23;;;2.00;;
20014;SDS011;61787;42.022;23.078;2022-09-29T06:07:44;4.55;;;1.75;;
20014;SDS011;61787;42.022;23.078;2022-09-29T06:08:46;9.40;;;2.00;;
20014;SDS011;61787;42.022;23.078;2022-09-29T06:09:49;4.03;;;2.33;;
20014;SDS011;61787;42.022;23.078;2022-09-29T06:10:50;3.03;;;1.75;;
20014;SDS011;61787;42.022;23.078;2022-09-29T06:11:52;2.75;;;1.90;;
20014;SDS011;61787;42.022;23.078;2022-09-29T06:12:54;7.93;;;2.15;;
20014;SDS011;61787;42.022;23.078;2022-09-29T06:13:57;5.45;;;2.33;;
20014;SDS011;61787;42.022;23.078;2022-09-29T06:14:58;3.35;;;2.05;;
20014;SDS011;61787;42.022;23.078;2022-09-29T06:16:00;6.78;;;2.58;;
20014;SDS011;61787;42.022;23.078;2022-09-29T06:17:02;6.05;;;2.28;;
20014;SDS011;61787;42.022;23.078;2022-09-29T06:18:04;6.22;;;2.60;;
20014;SDS011;61787;42.022;23.078;2022-09-29T06:19:05;13.40;;;3.05;;
20014;SDS011;61787;42.022;23.078;2022-09-29T06:20:07;9.80;;;2.97;;
20014;SDS011;61787;42.022;23.078;2022-09-29T06:21:10;7.68;;;3.05;;
20014;SDS011;61787;42.022;23.078;2022-09-29T06:22:13;6.72;;;2.72;;
20014;SDS011;61787;42.022;23.078;2022-09-29T06:23:14;17.02;;;3.83;;
20014;SDS011;61787;42.022;23.078;2022-09-29T06:24:16;8.48;;;3.35;;
20014;SDS011;61787;42.022;23.078;2022-09-29T06:25:18;6.75;;;2.88;;
20014;SDS011;61787;42.022;23.078;2022-09-29T06:26:20;5.88;;;3.05;;
20014;SDS011;61787;42.022;23.078;2022-09-29T06:27:24;11.15;;;3.50;;
20014;SDS011;61787;42.022;23.078;2022-09-29T06:28:26;7.82;;;3.53;;
20014;SDS011;61787;42.022;23.078;2022-09-29T06:29:29;9.23;;;3.70;;
20014;SDS011;61787;42.022;23.078;2022-09-29T06:30:30;8.00;;;3.63;;
20014;SDS011;61787;42.022;23.078;2022-09-29T06:31:32;9.82;;;3.83;;
20014;SDS011;61787;42.022;23.078;2022-09-29T06:32:34;12.77;;;4.15;;
20014;SDS011;61787;42.022;23.078;2022-09-29T06:33:36;11.90;;;4.10;;
20014;SDS011;61787;42.022;23.078;2022-09-29T06:34:38;11.80;;;4.50;;
20014;SDS011;61787;42.022;23.078;2022-09-29T06:36:01;9.60;;;4.43;;
20014;SDS011;61787;42.022;23.078;2022-09-29T06:37:24;8.07;;;4.38;;
20014;SDS011;61787;42.022;23.078;2022-09-29T06:38:35;12.93;;;4.32;;
20014;SDS011;61787;42.022;23.078;2022-09-29T06:39:37;13.75;;;4.47;;
20014;SDS011;61787;42.022;23.078;2022-09-29T06:40:38;12.32;;;4.22;;
20014;SDS011;61787;42.022;23.078;2022-09-29T06:41:40;10.65;;;3.97;;
20014;SDS011;61787;42.022;23.078;2022-09-29T06:42:44;10.48;;;4.20;;
20014;SDS011;61787;42.022;23.078;2022-09-29T06:43:46;7.72;;;4.35;;
20014;SDS011;61787;42.022;23.078;2022-09-29T06:44:47;11.90;;;4.00;;
20014;SDS011;61787;42.022;23.078;2022-09-29T06:45:49;8.65;;;4.18;;
20014;SDS011;61787;42.022;23.078;2022-09-29T06:46:51;13.77;;;4.60;;
20014;SDS011;61787;42.022;23.078;2022-09-29T06:47:59;10.25;;;3.65;;
20014;SDS011;61787;42.022;23.078;2022-09-29T06:49:00;12.80;;;4.47;;
20014;SDS011;61787;42.022;23.078;2022-09-29T06:50:02;10.02;;;4.53;;
20014;SDS011;61787;42.022;23.078;2022-09-29T06:51:12;8.27;;;4.28;;
20014;SDS011;61787;42.022;23.078;2022-09-29T06:52:15;8.55;;;4.03;;
20014;SDS011;61787;42.022;23.078;2022-09-29T06:53:22;11.93;;;4.13;;
20014;SDS011;61787;42.022;23.078;2022-09-29T06:54:35;7.00;;;3.90;;
20014;SDS011;61787;42.022;23.078;2022-09-29T06:55:37;7.57;;;3.38;;
20014;SDS011;61787;42.022;23.078;2022-09-29T06:56:39;8.73;;;3.55;;
20014;SDS011;61787;42.022;23.078;2022-09-29T06:57:40;16.35;;;4.68;;
20014;SDS011;61787;42.022;23.078;2022-09-29T06:58:43;5.93;;;3.30;;